Time;durP1;ratioP1;P1;durP2;ratioP2;P2;SDS_P1;SDS_P2;PMS_P1;PMS_P2;Temp;Humidity;BMP_temperature;BMP_pressure;BME280_temperature;BME280_humidity;BME280_pressure;Samples;Min_cycle;Max_cycle;Signal;HPM_P1;HPM_P2
2022/07/13 00:01:51;;;;;;;2.60;2.40;;;17.70;99.90;;;;;;4973176;28;22186;-69
2022/07/13 00:04:16;;;;;;;3.53;2.60;;;17.60;99.90;;;;;;4974039;28;20187;-69
2022/07/13 00:06:42;;;;;;;3.83;2.80;;;17.60;99.90;;;;;;4957273;28;20192;-68
2022/07/13 00:09:07;;;;;;;2.30;2.17;;;17.60;99.90;;;;;;4973374;28;20267;-69
2022/07/13 00:11:33;;;;;;;2.67;2.47;;;17.60;99.90;;;;;;4973658;28;20208;-69
2022/07/13 00:13:58;;;;;;;2.87;2.67;;;17.60;99.90;;;;;;4956599;28;20172;-71
2022/07/13 00:16:24;;;;;;;2.40;2.20;;;17.60;99.90;;;;;;4973949;28;20456;-68
2022/07/13 00:18:49;;;;;;;2.63;2.43;;;17.60;99.90;;;;;;4973047;28;20195;-68
2022/07/13 00:21:15;;;;;;;2.60;2.50;;;17.50;99.90;;;;;;4973664;28;20208;-67
2022/07/13 00:23:40;;;;;;;2.17;1.97;;;17.40;99.90;;;;;;4972558;28;20203;-68
2022/07/13 00:26:06;;;;;;;2.30;2.10;;;17.40;99.90;;;;;;4973942;28;20191;-69
2022/07/13 00:28:32;;;;;;;2.77;2.57;;;17.40;99.90;;;;;;4972174;28;20479;-67
2022/07/13 00:30:57;;;;;;;2.77;2.57;;;17.40;99.90;;;;;;4973594;28;20211;-69
2022/07/13 00:33:23;;;;;;;2.23;2.13;;;17.40;99.90;;;;;;4973659;28;20195;-69
2022/07/13 00:35:48;;;;;;;4.63;2.90;;;17.40;99.90;;;;;;4973161;28;20180;-68
2022/07/13 00:38:14;;;;;;;2.13;2.03;;;17.30;99.90;;;;;;4972165;28;20658;-69
2022/07/13 00:40:39;;;;;;;2.07;1.97;;;17.30;99.90;;;;;;4972640;28;20208;-69
2022/07/13 00:43:05;;;;;;;3.00;2.80;;;17.20;99.90;;;;;;4972874;28;20249;-67
2022/07/13 00:45:31;;;;;;;5.37;2.33;;;17.30;99.90;;;;;;4973457;28;20267;-71
2022/07/13 00:47:57;;;;;;;2.10;2.00;;;17.30;99.90;;;;;;4972670;28;20180;-68
2022/07/13 00:50:23;;;;;;;9.13;2.90;;;17.30;99.90;;;;;;4973045;28;20505;-67
2022/07/13 00:52:49;;;;;;;2.33;2.20;;;17.30;99.90;;;;;;4972792;28;20463;-66
2022/07/13 00:55:16;;;;;;;2.43;1.80;;;17.40;99.90;;;;;;4967053;28;20431;-68
2022/07/13 00:57:41;;;;;;;2.23;2.13;;;17.40;99.90;;;;;;4973039;28;20191;-69
2022/07/13 01:00:10;;;;;;;3.03;2.27;;;17.30;99.90;;;;;;4971772;28;20435;-68
2022/07/13 01:02:37;;;;;;;2.67;2.47;;;17.30;99.90;;;;;;4972177;28;20212;-68
2022/07/13 01:05:02;;;;;;;2.77;2.17;;;17.30;99.90;;;;;;4973002;28;20439;-69
2022/07/13 01:07:30;;;;;;;3.20;3.00;;;17.30;99.90;;;;;;4973114;28;20512;-69
2022/07/13 01:09:56;;;;;;;2.13;2.03;;;17.20;99.90;;;;;;4971914;28;20653;-69
2022/07/13 01:12:21;;;;;;;2.40;2.20;;;17.10;99.90;;;;;;4972810;28;20463;-68
2022/07/13 01:14:48;;;;;;;2.47;2.37;;;17.00;99.90;;;;;;4972820;28;20250;-69
2022/07/13 01:17:14;;;;;;;2.73;2.53;;;17.00;99.90;;;;;;4971794;28;20176;-68
2022/07/13 01:19:40;;;;;;;2.60;2.00;;;17.00;99.90;;;;;;4971245;28;20443;-69
2022/07/13 01:22:08;;;;;;;2.40;2.20;;;17.00;99.90;;;;;;4973135;28;20937;-68
2022/07/13 01:24:34;;;;;;;2.23;2.13;;;16.90;99.90;;;;;;4971300;28;20432;-68
2022/07/13 01:27:00;;;;;;;2.70;2.43;;;16.90;99.90;;;;;;4972235;28;20439;-68
2022/07/13 01:29:26;;;;;;;3.87;2.40;;;16.90;99.90;;;;;;4972016;28;20470;-68
2022/07/13 01:31:58;;;;;;;1.87;1.70;;;17.00;99.90;;;;;;4972791;28;20491;-68
2022/07/13 01:34:24;;;;;;;2.53;2.33;;;17.10;99.90;;;;;;4954950;28;20196;-68
2022/07/13 01:36:50;;;;;;;2.80;2.40;;;17.10;99.90;;;;;;4971756;28;20467;-66
2022/07/13 01:39:15;;;;;;;2.67;2.57;;;17.20;99.90;;;;;;4966001;28;20185;-67
2022/07/13 01:41:41;;;;;;;2.57;2.37;;;17.10;99.90;;;;;;4968386;28;20262;-68
2022/07/13 01:44:06;;;;;;;2.40;2.20;;;17.10;99.90;;;;;;4973384;28;20176;-68
2022/07/13 01:46:32;;;;;;;2.90;2.70;;;17.10;99.90;;;;;;4972401;28;20176;-68
2022/07/13 01:48:58;;;;;;;3.10;2.90;;;17.00;99.90;;;;;;4970378;28;20641;-68
2022/07/13 01:51:23;;;;;;;2.50;2.30;;;17.00;99.90;;;;;;4972442;28;20204;-68
2022/07/13 01:53:50;;;;;;;2.83;2.63;;;16.90;99.90;;;;;;4971817;28;20963;-68
2022/07/13 01:56:15;;;;;;;2.37;2.27;;;16.90;99.90;;;;;;4970608;28;20267;-67
2022/07/13 01:58:41;;;;;;;2.33;2.23;;;16.90;99.90;;;;;;4970619;28;20640;-68
2022/07/13 02:01:06;;;;;;;3.03;2.30;;;17.00;99.90;;;;;;4972305;28;20243;-68
2022/07/13 02:03:33;;;;;;;2.60;2.40;;;17.00;99.90;;;;;;4970460;28;20299;-68
2022/07/13 02:05:58;;;;;;;3.87;2.37;;;17.10;99.90;;;;;;4971091;28;20180;-68
2022/07/13 02:08:25;;;;;;;2.47;2.27;;;17.10;99.90;;;;;;4971418;28;20439;-68
2022/07/13 02:10:51;;;;;;;3.80;2.50;;;17.10;99.90;;;;;;4971135;28;20200;-69
2022/07/13 02:13:16;;;;;;;4.13;2.00;;;17.10;99.90;;;;;;4971594;28;20490;-68
2022/07/13 02:15:43;;;;;;;2.90;2.70;;;17.20;99.90;;;;;;4973237;28;20555;-69
2022/07/13 02:18:08;;;;;;;2.47;2.27;;;17.10;99.90;;;;;;4971126;28;20208;-67
2022/07/13 02:20:34;;;;;;;2.67;2.50;;;17.10;99.90;;;;;;4969756;28;20451;-69
2022/07/13 02:23:00;;;;;;;2.33;2.13;;;17.00;99.90;;;;;;4970911;28;20200;-67
2022/07/13 02:25:26;;;;;;;2.53;2.33;;;17.00;99.90;;;;;;4971930;28;21005;-68
2022/07/13 02:27:52;;;;;;;2.50;2.30;;;17.00;99.90;;;;;;4971353;28;20176;-66
2022/07/13 02:30:17;;;;;;;2.50;2.40;;;17.10;99.90;;;;;;4970679;28;20778;-68
2022/07/13 02:32:44;;;;;;;2.70;2.50;;;17.20;99.90;;;;;;4971476;28;20211;-67
2022/07/13 02:35:11;;;;;;;2.50;2.30;;;17.20;99.90;;;;;;4971289;28;20184;-68
2022/07/13 02:37:38;;;;;;;2.87;2.67;;;17.20;99.90;;;;;;4970004;28;20991;-68
2022/07/13 02:40:05;;;;;;;2.83;2.63;;;17.20;99.90;;;;;;4970354;28;20514;-68
2022/07/13 02:42:31;;;;;;;2.67;2.57;;;17.10;99.90;;;;;;4970272;28;20495;-67
2022/07/13 02:44:56;;;;;;;2.50;2.40;;;17.10;99.90;;;;;;4963589;28;20587;-69
2022/07/13 02:47:22;;;;;;;2.87;2.67;;;17.10;99.90;;;;;;4971083;28;20192;-68
2022/07/13 02:49:48;;;;;;;3.30;2.83;;;17.10;99.90;;;;;;4970466;28;20206;-67
2022/07/13 02:52:13;;;;;;;2.37;2.27;;;17.00;99.90;;;;;;4972169;28;20227;-69
2022/07/13 02:54:39;;;;;;;2.27;2.17;;;17.00;99.90;;;;;;4963175;28;20715;-68
2022/07/13 02:57:07;;;;;;;2.33;2.23;;;17.00;99.90;;;;;;4970613;28;20726;-67
2022/07/13 02:59:35;;;;;;;3.23;2.30;;;16.90;99.90;;;;;;4970144;28;20180;-69
2022/07/13 03:02:01;;;;;;;3.60;2.37;;;16.90;99.90;;;;;;4970640;28;20477;-68
2022/07/13 03:04:26;;;;;;;3.23;2.90;;;16.80;99.90;;;;;;4970681;28;20926;-67
2022/07/13 03:06:52;;;;;;;2.60;2.40;;;16.80;99.90;;;;;;4963333;28;20689;-68
2022/07/13 03:09:17;;;;;;;2.53;2.17;;;16.80;99.90;;;;;;4969500;28;20242;-67
2022/07/13 03:11:43;;;;;;;2.80;2.67;;;16.80;99.90;;;;;;4969207;28;20624;-68
2022/07/13 03:14:08;;;;;;;2.60;2.40;;;16.70;99.90;;;;;;4971834;28;20685;-68
2022/07/13 03:16:34;;;;;;;2.43;2.33;;;16.70;99.90;;;;;;4970766;28;20184;-70
2022/07/13 03:19:00;;;;;;;11.33;9.90;;;16.60;99.90;;;;;;4971177;28;20235;-68
2022/07/13 03:21:27;;;;;;;3.63;3.43;;;16.50;99.90;;;;;;4970704;28;20200;-67
2022/07/13 03:23:53;;;;;;;2.53;2.43;;;16.50;99.90;;;;;;4971425;28;20203;-67
2022/07/13 03:26:18;;;;;;;2.40;2.10;;;16.30;99.90;;;;;;4969967;28;20487;-67
2022/07/13 03:28:45;;;;;;;2.30;2.20;;;16.30;99.90;;;;;;4967935;28;20828;-67
2022/07/13 03:31:10;;;;;;;2.80;2.60;;;16.30;99.90;;;;;;4969405;28;20681;-67
2022/07/13 03:33:36;;;;;;;2.63;2.43;;;16.30;99.90;;;;;;4969815;28;20436;-66
2022/07/13 03:36:02;;;;;;;2.93;2.37;;;16.30;99.90;;;;;;4971036;28;20184;-67
2022/07/13 03:38:27;;;;;;;3.20;2.90;;;16.30;99.90;;;;;;4969454;28;20208;-68
2022/07/13 03:40:53;;;;;;;2.87;2.43;;;16.30;99.90;;;;;;4971144;28;20275;-67
2022/07/13 03:43:18;;;;;;;2.30;2.20;;;16.30;99.90;;;;;;4971135;28;20677;-68
2022/07/13 03:45:44;;;;;;;2.60;2.40;;;16.20;99.90;;;;;;4970059;28;20219;-67
2022/07/13 03:48:09;;;;;;;2.77;2.50;;;16.30;99.90;;;;;;4970016;28;20188;-66
2022/07/13 03:50:35;;;;;;;3.80;2.30;;;16.30;99.90;;;;;;4971567;28;20266;-67
2022/07/13 03:53:00;;;;;;;2.90;2.70;;;16.30;99.90;;;;;;4973994;28;20172;-68
2022/07/13 03:55:26;;;;;;;3.23;3.03;;;16.30;99.90;;;;;;4973966;28;20184;-67
2022/07/13 03:57:51;;;;;;;4.83;2.80;;;16.20;99.90;;;;;;4974010;28;20195;-67
2022/07/13 04:00:17;;;;;;;3.50;3.27;;;16.00;99.90;;;;;;4973813;28;20188;-68
2022/07/13 04:02:43;;;;;;;5.23;4.83;;;16.30;99.90;;;;;;4974049;28;20234;-68
2022/07/13 04:05:09;;;;;;;3.77;3.47;;;16.30;99.90;;;;;;4975097;28;21012;-68
2022/07/13 04:07:35;;;;;;;3.07;2.83;;;16.40;99.90;;;;;;4974308;28;20240;-67
2022/07/13 04:10:00;;;;;;;4.93;3.23;;;16.50;99.90;;;;;;4972859;28;20485;-67
2022/07/13 04:12:26;;;;;;;2.37;2.17;;;16.60;99.90;;;;;;4974185;28;20291;-70
2022/07/13 04:14:51;;;;;;;7.43;3.17;;;16.70;99.90;;;;;;4973137;28;20227;-69
2022/07/13 04:17:17;;;;;;;3.20;2.90;;;16.80;99.90;;;;;;4969455;28;20190;-66
2022/07/13 04:19:42;;;;;;;4.60;4.30;;;16.90;99.90;;;;;;4973904;28;20244;-68
2022/07/13 04:22:08;;;;;;;5.10;3.30;;;17.00;99.90;;;;;;4973594;28;20673;-69
2022/07/13 04:24:33;;;;;;;3.20;2.90;;;17.00;99.90;;;;;;4970799;28;20196;-68
2022/07/13 04:26:59;;;;;;;3.63;3.33;;;17.00;99.90;;;;;;4973775;28;20188;-68
2022/07/13 04:29:24;;;;;;;4.10;2.90;;;17.10;99.90;;;;;;4972730;28;20289;-67
2022/07/13 04:31:50;;;;;;;9.00;3.60;;;17.20;99.90;;;;;;4973316;28;20625;-67
2022/07/13 04:34:16;;;;;;;4.00;3.70;;;17.30;99.90;;;;;;4973371;28;20177;-69
2022/07/13 04:36:43;;;;;;;4.43;3.97;;;17.30;99.90;;;;;;4973499;28;20996;-68
2022/07/13 04:39:08;;;;;;;3.27;2.97;;;17.50;99.90;;;;;;4956288;28;20467;-68
2022/07/13 04:41:34;;;;;;;3.13;2.83;;;17.70;99.90;;;;;;4966092;28;21023;-68
2022/07/13 04:43:59;;;;;;;3.73;3.07;;;17.90;99.90;;;;;;4973834;28;20223;-68
2022/07/13 04:46:25;;;;;;;3.27;2.97;;;18.10;99.90;;;;;;4973678;28;20191;-68
2022/07/13 04:48:51;;;;;;;3.83;3.00;;;18.30;99.90;;;;;;4972202;28;20212;-68
2022/07/13 04:51:16;;;;;;;2.80;2.10;;;18.40;99.90;;;;;;4973351;28;20587;-67
2022/07/13 04:53:42;;;;;;;3.93;2.70;;;18.50;99.90;;;;;;4973483;28;20173;-67
2022/07/13 04:56:07;;;;;;;3.40;3.00;;;18.70;99.90;;;;;;4969479;28;20644;-67
2022/07/13 04:58:33;;;;;;;2.83;2.63;;;18.80;99.90;;;;;;4972225;28;20192;-67
2022/07/13 05:01:00;;;;;;;2.90;2.60;;;18.90;99.90;;;;;;4971107;28;20200;-68
2022/07/13 05:03:26;;;;;;;2.67;2.47;;;19.00;99.90;;;;;;4973107;28;20209;-68
2022/07/13 05:05:52;;;;;;;2.53;2.33;;;19.20;99.90;;;;;;4973000;28;20479;-68
2022/07/13 05:08:17;;;;;;;3.10;2.90;;;19.30;99.90;;;;;;4972051;28;20494;-68
2022/07/13 05:10:43;;;;;;;3.43;3.13;;;19.60;99.90;;;;;;4969684;28;20690;-68
2022/07/13 05:13:08;;;;;;;5.37;2.53;;;19.70;99.90;;;;;;4968958;28;20191;-68
2022/07/13 05:15:34;;;;;;;2.83;2.60;;;19.70;99.90;;;;;;4973483;28;20188;-67
2022/07/13 05:17:59;;;;;;;3.80;2.87;;;19.80;99.90;;;;;;4973075;28;20206;-68
2022/07/13 05:20:25;;;;;;;2.73;2.53;;;19.90;99.90;;;;;;4976888;28;20192;-68
2022/07/13 05:22:50;;;;;;;3.97;2.37;;;19.90;99.90;;;;;;4973461;28;20220;-68
2022/07/13 05:25:16;;;;;;;3.10;2.83;;;19.90;99.90;;;;;;4973036;28;20681;-69
2022/07/13 05:27:41;;;;;;;2.53;2.33;;;19.90;99.90;;;;;;4973192;28;20685;-68
2022/07/13 05:30:07;;;;;;;2.13;1.93;;;20.00;99.90;;;;;;4971522;28;20169;-68
2022/07/13 05:32:33;;;;;;;2.27;2.07;;;20.10;99.90;;;;;;4984761;28;20222;-68
2022/07/13 05:34:59;;;;;;;5.20;4.77;;;20.20;99.90;;;;;;4965343;28;20435;-68
2022/07/13 05:37:24;;;;;;;5.87;5.17;;;20.40;99.90;;;;;;4962586;28;20194;-68
2022/07/13 05:39:51;;;;;;;3.47;3.17;;;20.50;99.90;;;;;;4962293;28;20664;-68
2022/07/13 05:42:16;;;;;;;3.90;2.70;;;20.70;99.90;;;;;;4963240;28;20270;-68
2022/07/13 05:44:42;;;;;;;3.67;2.80;;;20.90;99.90;;;;;;4969828;28;20464;-68
2022/07/13 05:47:07;;;;;;;4.13;2.60;;;21.10;99.90;;;;;;4972990;28;20180;-68
2022/07/13 05:49:33;;;;;;;3.23;2.27;;;21.30;99.90;;;;;;4972617;28;20188;-68
2022/07/13 05:51:59;;;;;;;2.33;2.23;;;21.30;99.90;;;;;;4969685;28;20589;-69
2022/07/13 05:54:25;;;;;;;6.80;2.73;;;21.30;99.90;;;;;;4967564;28;20658;-69
2022/07/13 05:56:50;;;;;;;6.40;2.57;;;21.30;99.90;;;;;;4969188;28;20439;-68
2022/07/13 05:59:16;;;;;;;3.40;3.10;;;21.30;99.90;;;;;;4971591;28;20180;-67
2022/07/13 06:01:41;;;;;;;3.23;2.90;;;21.20;99.90;;;;;;4970461;28;20295;-68
2022/07/13 06:04:07;;;;;;;2.80;2.53;;;21.20;99.90;;;;;;4971239;28;20203;-68
2022/07/13 06:06:32;;;;;;;4.57;2.17;;;21.20;99.90;;;;;;4970415;28;20184;-67
2022/07/13 06:08:58;;;;;;;2.67;2.43;;;21.40;99.90;;;;;;4968681;28;20195;-67
2022/07/13 06:11:23;;;;;;;5.13;2.03;;;21.40;99.90;;;;;;4965546;28;20199;-66
2022/07/13 06:13:49;;;;;;;3.27;2.97;;;21.60;99.90;;;;;;4948852;28;20188;-66
2022/07/13 06:16:14;;;;;;;2.83;2.63;;;21.50;99.90;;;;;;4962445;28;20195;-66
2022/07/13 06:18:40;;;;;;;2.80;2.60;;;21.60;99.90;;;;;;4962786;28;20199;-66
2022/07/13 06:21:06;;;;;;;3.60;2.27;;;21.70;99.90;;;;;;4965386;28;20447;-68
2022/07/13 06:23:31;;;;;;;2.57;2.37;;;21.80;99.90;;;;;;4969500;28;20725;-66
2022/07/13 06:25:58;;;;;;;4.80;1.90;;;21.80;99.90;;;;;;4976144;28;20180;-66
2022/07/13 06:28:24;;;;;;;1.90;1.80;;;21.80;99.90;;;;;;4969877;28;20257;-66
2022/07/13 06:30:49;;;;;;;1.57;1.47;;;21.90;99.90;;;;;;4970453;28;20567;-66
2022/07/13 06:33:15;;;;;;;2.67;1.80;;;22.00;99.90;;;;;;4973115;28;20202;-66
2022/07/13 06:35:40;;;;;;;2.90;1.47;;;22.10;99.90;;;;;;4971896;28;20184;-68
2022/07/13 06:38:06;;;;;;;2.17;2.03;;;22.20;99.90;;;;;;4966460;28;20195;-66
2022/07/13 06:40:31;;;;;;;3.13;2.20;;;22.30;99.90;;;;;;4967685;28;20188;-66
2022/07/13 06:42:57;;;;;;;3.40;1.43;;;22.40;99.90;;;;;;4973572;28;20204;-67
2022/07/13 06:45:22;;;;;;;2.40;1.70;;;22.60;99.90;;;;;;4971618;28;20176;-66
2022/07/13 06:47:50;;;;;;;2.00;1.80;;;22.60;99.90;;;;;;4969219;28;20606;-66
2022/07/13 06:50:15;;;;;;;1.80;1.70;;;22.70;99.90;;;;;;4964670;28;20176;-66
2022/07/13 06:52:43;;;;;;;4.57;2.37;;;22.90;99.90;;;;;;4966744;28;20828;-66
2022/07/13 06:55:08;;;;;;;2.20;2.00;;;23.10;99.90;;;;;;4969372;28;20180;-64
2022/07/13 06:57:35;;;;;;;3.23;1.53;;;23.20;99.90;;;;;;4965292;28;20448;-65
2022/07/13 07:00:00;;;;;;;1.97;1.83;;;23.40;99.80;;;;;;4963279;28;20702;-66
2022/07/13 07:02:26;;;;;;;2.23;1.47;;;23.40;99.90;;;;;;4966800;28;20569;-65
2022/07/13 07:04:53;;;;;;;1.70;1.60;;;23.50;99.70;;;;;;4963308;28;20180;-65
2022/07/13 07:07:18;;;;;;;1.63;1.53;;;23.70;99.70;;;;;;4964282;28;20200;-66
2022/07/13 07:09:44;;;;;;;1.20;1.20;;;24.10;99.30;;;;;;4970432;28;20436;-66
2022/07/13 07:12:09;;;;;;;2.50;1.60;;;24.70;98.80;;;;;;4973067;28;20587;-66
2022/07/13 07:14:34;;;;;;;1.63;1.53;;;25.50;97.20;;;;;;4967568;28;20183;-66
2022/07/13 07:17:02;;;;;;;3.40;1.43;;;25.90;95.50;;;;;;4975562;28;20246;-65
2022/07/13 07:19:28;;;;;;;1.90;1.73;;;26.10;94.70;;;;;;4968551;28;20239;-65
2022/07/13 07:21:54;;;;;;;2.13;1.53;;;26.20;94.50;;;;;;4972459;28;20505;-69
2022/07/13 07:24:20;;;;;;;3.80;1.87;;;26.00;94.20;;;;;;4970266;28;20172;-66
2022/07/13 07:26:47;;;;;;;5.67;1.57;;;26.20;93.70;;;;;;4977670;28;20551;-68
2022/07/13 07:29:13;;;;;;;3.00;2.10;;;26.70;93.10;;;;;;4972256;28;20176;-64
2022/07/13 07:31:38;;;;;;;2.27;1.40;;;27.10;91.90;;;;;;4980598;28;20528;-65
2022/07/13 07:34:04;;;;;;;3.30;3.10;;;27.20;90.30;;;;;;4969621;28;20188;-66
2022/07/13 07:36:29;;;;;;;1.90;1.80;;;27.10;90.70;;;;;;4973549;28;20192;-64
2022/07/13 07:38:55;;;;;;;2.43;1.47;;;27.50;89.20;;;;;;4973051;28;20657;-65
2022/07/13 07:41:20;;;;;;;2.40;1.47;;;27.70;84.60;;;;;;4973458;28;20208;-66
2022/07/13 07:43:46;;;;;;;1.60;1.50;;;27.50;85.20;;;;;;4973999;28;20211;-65
2022/07/13 07:46:12;;;;;;;1.60;1.50;;;28.00;83.00;;;;;;4978144;28;20541;-65
2022/07/13 07:48:37;;;;;;;1.20;1.10;;;28.60;81.70;;;;;;4975015;28;20431;-65
2022/07/13 07:51:04;;;;;;;1.47;1.37;;;28.50;78.10;;;;;;4973242;28;20291;-65
2022/07/13 07:53:29;;;;;;;1.63;1.53;;;28.50;78.70;;;;;;4971784;28;20196;-66
2022/07/13 07:55:55;;;;;;;1.40;1.30;;;28.40;75.80;;;;;;4971831;28;20439;-64
2022/07/13 07:58:20;;;;;;;1.73;1.63;;;27.30;76.70;;;;;;4969729;28;20184;-65
2022/07/13 08:00:46;;;;;;;1.60;1.50;;;27.20;77.80;;;;;;4972556;28;20212;-64
2022/07/13 08:03:12;;;;;;;1.20;1.10;;;26.90;77.00;;;;;;4977376;28;20203;-65
2022/07/13 08:05:37;;;;;;;1.30;1.30;;;27.00;77.20;;;;;;4970583;28;21204;-66
2022/07/13 08:08:04;;;;;;;1.50;1.40;;;27.50;76.70;;;;;;4973081;28;20180;-66
2022/07/13 08:10:30;;;;;;;2.53;1.43;;;28.00;74.40;;;;;;4967562;28;20642;-65
2022/07/13 08:12:58;;;;;;;4.23;1.13;;;28.00;74.90;;;;;;4973849;28;20450;-64
2022/07/13 08:15:24;;;;;;;1.40;1.30;;;28.10;74.70;;;;;;4972972;28;20442;-65
2022/07/13 08:17:50;;;;;;;2.30;1.40;;;28.40;72.00;;;;;;4972769;28;20495;-66
2022/07/13 08:20:15;;;;;;;1.50;1.40;;;28.50;72.20;;;;;;4975022;28;20188;-64
2022/07/13 08:22:41;;;;;;;1.27;1.20;;;28.70;70.20;;;;;;4974215;28;20298;-65
2022/07/13 08:25:06;;;;;;;2.87;1.23;;;28.70;69.70;;;;;;4972218;28;20674;-65
2022/07/13 08:27:32;;;;;;;1.50;1.40;;;28.70;68.20;;;;;;4973598;28;20271;-65
2022/07/13 08:29:58;;;;;;;1.67;1.30;;;28.30;68.40;;;;;;4974465;28;20200;-65
2022/07/13 08:32:24;;;;;;;1.30;1.23;;;28.10;68.60;;;;;;4971740;28;20231;-64
2022/07/13 08:40:21;;;;;;;1.83;1.73;;;28.00;67.80;;;;;;4973944;28;20470;-66
2022/07/13 08:42:47;;;;;;;1.70;1.60;;;28.10;67.90;;;;;;4972162;28;20471;-65
2022/07/13 08:45:13;;;;;;;1.30;1.20;;;27.90;68.40;;;;;;4972556;28;20455;-65
2022/07/13 08:47:41;;;;;;;1.40;1.30;;;27.80;68.00;;;;;;4976221;28;20444;-65
2022/07/13 08:50:08;;;;;;;3.87;1.77;;;28.00;67.50;;;;;;4971383;28;20442;-65
2022/07/13 08:52:36;;;;;;;1.50;1.40;;;28.50;66.10;;;;;;4972978;28;20467;-68
2022/07/13 08:55:03;;;;;;;1.30;1.23;;;28.50;66.50;;;;;;4971744;28;20548;-65
2022/07/13 08:57:30;;;;;;;1.80;1.10;;;28.20;65.60;;;;;;4972332;28;20440;-65
2022/07/13 08:59:55;;;;;;;1.37;1.27;;;28.50;64.80;;;;;;4972382;28;21004;-67
2022/07/13 09:02:20;;;;;;;1.67;1.57;;;29.00;63.20;;;;;;4971221;28;20558;-65
2022/07/13 09:04:46;;;;;;;1.20;1.20;;;29.50;63.10;;;;;;4972433;28;20186;-64
2022/07/13 09:07:11;;;;;;;1.50;1.40;;;29.80;62.00;;;;;;4973115;28;20267;-64
2022/07/13 09:09:39;;;;;;;2.07;1.50;;;30.20;60.90;;;;;;4970068;28;20195;-65
2022/07/13 09:12:19;;;;;;;1.73;1.63;;;30.60;59.90;;;;;;4970172;28;20244;-66
2022/07/13 09:14:53;;;;;;;1.47;1.37;;;31.00;59.00;;;;;;4965913;28;20965;-65
2022/07/13 09:17:30;;;;;;;2.40;1.60;;;31.00;59.10;;;;;;4972029;28;20430;-66
2022/07/13 09:19:58;;;;;;;2.30;1.47;;;31.20;58.20;;;;;;4970499;28;20827;-66
2022/07/13 09:22:24;;;;;;;8.17;2.33;;;30.90;57.80;;;;;;4970891;28;20479;-67
2022/07/13 09:24:53;;;;;;;1.73;1.40;;;31.00;57.90;;;;;;4961853;28;20967;-65
2022/07/13 09:27:21;;;;;;;1.80;1.70;;;31.20;56.70;;;;;;4973465;28;20583;-66
2022/07/13 09:29:46;;;;;;;1.47;1.37;;;31.10;55.90;;;;;;4962430;28;20489;-66
2022/07/13 09:32:12;;;;;;;1.57;1.47;;;30.90;55.50;;;;;;4968056;28;20455;-67
2022/07/13 09:34:48;;;;;;;1.70;1.60;;;31.20;53.50;;;;;;4978861;28;20206;-65
2022/07/13 09:37:15;;;;;;;1.60;1.50;;;31.70;53.70;;;;;;4971513;28;20180;-66
2022/07/13 09:40:01;;;;;;;2.53;1.47;;;31.90;52.40;;;;;;4972741;28;20443;-65
2022/07/13 09:42:32;;;;;;;1.60;1.50;;;31.70;51.90;;;;;;4968454;28;20515;-66
2022/07/13 09:47:54;;;;;;;1.70;1.60;;;32.40;51.50;;;;;;4970868;28;20582;-65
2022/07/13 09:50:36;;;;;;;2.20;1.80;;;32.70;50.00;;;;;;4969207;28;20486;-66
2022/07/13 09:53:03;;;;;;;1.97;1.30;;;32.80;50.10;;;;;;4971312;28;20443;-66
2022/07/13 09:55:32;;;;;;;2.60;2.40;;;32.80;49.30;;;;;;4970734;28;20435;-66
2022/07/13 09:58:02;;;;;;;1.80;1.70;;;32.70;49.00;;;;;;4969789;28;20823;-66
2022/07/13 10:00:27;;;;;;;2.03;1.27;;;33.20;48.60;;;;;;4969821;28;20447;-66
2022/07/13 10:02:54;;;;;;;1.50;1.40;;;33.70;46.30;;;;;;4971918;28;20467;-66
2022/07/13 10:05:19;;;;;;;1.63;1.53;;;34.00;45.00;;;;;;4969702;28;20187;-66
2022/07/13 10:07:47;;;;;;;1.43;1.10;;;35.00;43.60;;;;;;4971235;28;20447;-66
2022/07/13 10:10:15;;;;;;;5.20;1.43;;;35.80;42.70;;;;;;4970366;28;20232;-66
2022/07/13 10:12:41;;;;;;;1.63;1.53;;;35.30;43.20;;;;;;4970279;28;20463;-66
2022/07/13 10:15:08;;;;;;;3.33;1.20;;;35.90;42.00;;;;;;4974629;28;20479;-66
2022/07/13 10:17:34;;;;;;;1.83;1.20;;;36.50;39.70;;;;;;4976098;28;20445;-66
2022/07/13 10:20:16;;;;;;;1.50;1.40;;;36.90;38.90;;;;;;4969178;28;20988;-66
2022/07/13 10:22:46;;;;;;;1.20;1.20;;;37.10;37.00;;;;;;4969076;28;20471;-66
2022/07/13 10:25:12;;;;;;;1.40;1.30;;;37.20;35.30;;;;;;4969602;28;20474;-66
2022/07/13 10:27:41;;;;;;;2.03;1.80;;;37.60;35.80;;;;;;4953000;28;20467;-66
2022/07/13 10:30:21;;;;;;;1.30;1.30;;;38.00;35.30;;;;;;4969088;28;20471;-66
2022/07/13 10:32:47;;;;;;;1.10;1.10;;;38.60;35.00;;;;;;4972542;28;20948;-66
2022/07/13 10:35:16;;;;;;;2.30;1.50;;;39.20;33.40;;;;;;4970935;28;20555;-66
2022/07/13 10:38:00;;;;;;;1.63;1.53;;;39.50;31.90;;;;;;4969917;28;20180;-66
2022/07/13 10:40:30;;;;;;;1.27;1.17;;;39.90;30.60;;;;;;4969771;28;20467;-66
2022/07/13 10:43:04;;;;;;;1.20;1.17;;;40.50;29.30;;;;;;4971129;28;20463;-66
2022/07/13 10:45:42;;;;;;;1.23;1.23;;;40.20;29.50;;;;;;4968866;28;20447;-66
2022/07/13 10:48:30;;;;;;;1.50;1.40;;;40.90;29.60;;;;;;4972966;28;20494;-66
2022/07/13 10:51:01;;;;;;;2.60;1.20;;;41.40;28.00;;;;;;4970516;28;20542;-66
2022/07/13 10:53:39;;;;;;;1.47;1.37;;;40.10;28.00;;;;;;4971058;28;20439;-66
2022/07/13 10:56:15;;;;;;;1.10;1.10;;;40.80;25.90;;;;;;4969317;28;20563;-66
2022/07/13 10:58:43;;;;;;;1.47;1.40;;;40.90;26.60;;;;;;4970579;28;20949;-66
2022/07/13 11:01:32;;;;;;;1.10;1.10;;;42.40;26.20;;;;;;4955544;28;20467;-67
2022/07/13 11:03:59;;;;;;;1.47;1.30;;;42.50;27.10;;;;;;4965897;28;20854;-67
2022/07/13 11:06:24;;;;;;;2.00;1.13;;;43.00;27.70;;;;;;4975663;28;21270;-67
2022/07/13 11:09:18;;;;;;;2.30;1.43;;;43.90;29.40;;;;;;4973756;28;20438;-66
2022/07/13 11:11:53;;;;;;;1.50;1.40;;;44.30;26.90;;;;;;4972162;28;20649;-65
2022/07/13 11:14:40;;;;;;;1.30;1.30;;;43.20;26.00;;;;;;4971623;28;20482;-66
2022/07/13 11:17:16;;;;;;;1.30;1.30;;;43.40;26.00;;;;;;4971529;28;20451;-66
2022/07/13 11:20:05;;;;;;;1.40;1.30;;;43.60;26.00;;;;;;4973448;28;20450;-65
2022/07/13 11:25:41;;;;;;;1.30;0.87;;;41.90;26.80;;;;;;4971764;28;20446;-65
2022/07/13 11:28:31;;;;;;;10.03;1.20;;;42.50;25.90;;;;;;4973118;28;20796;-65
2022/07/13 11:30:56;;;;;;;2.83;1.93;;;42.20;25.80;;;;;;4973285;28;20459;-65
2022/07/13 11:33:23;;;;;;;2.60;2.50;;;41.20;26.00;;;;;;4971018;28;20439;-65
2022/07/13 11:35:49;;;;;;;1.80;1.50;;;41.60;26.00;;;;;;4971269;28;20234;-65
2022/07/13 11:38:16;;;;;;;2.50;2.30;;;41.40;25.30;;;;;;4974634;28;21019;-66
2022/07/13 11:40:43;;;;;;;1.60;1.50;;;41.20;25.70;;;;;;4950226;28;20560;-65
2022/07/13 11:43:09;;;;;;;1.90;1.70;;;39.80;25.60;;;;;;4973351;28;20459;-65
2022/07/13 11:45:34;;;;;;;2.07;1.57;;;38.80;26.30;;;;;;4947221;28;20958;-66
2022/07/13 11:48:02;;;;;;;2.37;2.10;;;39.20;27.10;;;;;;4973182;28;20451;-65
2022/07/13 11:50:40;;;;;;;3.90;3.60;;;41.00;25.40;;;;;;4969239;28;20207;-65
2022/07/13 11:53:06;;;;;;;1.53;1.43;;;44.30;22.70;;;;;;4973129;28;20451;-65
2022/07/13 11:55:32;;;;;;;3.03;1.77;;;46.10;21.10;;;;;;4972236;28;20510;-65
2022/07/13 11:58:00;;;;;;;1.97;1.87;;;47.50;20.60;;;;;;4979192;28;20196;-65
2022/07/13 12:00:26;;;;;;;3.40;3.20;;;49.10;19.90;;;;;;4973299;28;20215;-65
2022/07/13 12:02:51;;;;;;;2.60;2.40;;;50.20;19.20;;;;;;4969356;28;20976;-65
2022/07/13 12:05:25;;;;;;;2.03;1.93;;;49.90;19.20;;;;;;4971979;28;20218;-66
2022/07/13 12:08:04;;;;;;;2.30;2.20;;;47.50;19.30;;;;;;4972500;28;20180;-65
2022/07/13 12:10:32;;;;;;;3.60;3.30;;;44.70;20.50;;;;;;4969888;28;20527;-65
2022/07/13 12:12:57;;;;;;;4.20;3.87;;;44.60;21.70;;;;;;4971690;28;20749;-65
2022/07/13 12:15:23;;;;;;;4.10;3.70;;;45.40;21.50;;;;;;4970816;28;20434;-65
2022/07/13 12:17:49;;;;;;;2.07;1.97;;;47.60;21.30;;;;;;4980135;28;20262;-65
2022/07/13 12:20:22;;;;;;;3.00;2.70;;;47.40;20.00;;;;;;4971447;28;21041;-65
2022/07/13 12:22:53;;;;;;;3.57;2.90;;;44.60;20.90;;;;;;4956407;28;20319;-65
2022/07/13 12:25:39;;;;;;;1.53;1.20;;;43.30;21.60;;;;;;4972867;28;20432;-65
2022/07/13 12:28:08;;;;;;;1.37;1.37;;;40.80;22.40;;;;;;4954824;28;20441;-65
2022/07/13 12:30:37;;;;;;;1.40;1.30;;;39.90;23.50;;;;;;4973185;28;20444;-65
2022/07/13 12:33:09;;;;;;;2.80;2.60;;;38.40;23.50;;;;;;4973774;28;20506;-65
2022/07/13 12:35:40;;;;;;;2.83;2.57;;;38.30;24.10;;;;;;4972004;28;20471;-65
2022/07/13 12:38:12;;;;;;;3.00;1.83;;;38.50;23.40;;;;;;4973368;28;20435;-65
2022/07/13 12:40:59;;;;;;;1.50;1.40;;;37.90;24.00;;;;;;4954076;28;20521;-65
2022/07/13 12:43:26;;;;;;;1.53;1.43;;;36.60;24.80;;;;;;4968884;28;20945;-65
2022/07/13 12:46:03;;;;;;;4.20;2.40;;;36.30;24.80;;;;;;4971683;28;20438;-65
2022/07/13 12:48:34;;;;;;;2.00;1.80;;;36.60;25.20;;;;;;4972552;28;20467;-65
2022/07/13 12:51:05;;;;;;;1.87;1.77;;;37.40;25.00;;;;;;4973072;28;20964;-65
2022/07/13 12:53:59;;;;;;;3.53;1.03;;;38.50;24.20;;;;;;4974681;28;20440;-65
2022/07/13 12:56:26;;;;;;;1.33;1.33;;;38.80;23.50;;;;;;4967767;28;20597;-65
2022/07/13 12:58:53;;;;;;;3.30;3.00;;;39.30;23.40;;;;;;4971252;28;20939;-65
2022/07/13 13:01:35;;;;;;;4.27;3.87;;;39.50;23.80;;;;;;4971895;28;20841;-65